This is the latest recevied weather packets stored in our database for station/object DC1MBB-9. If no packets are shown the sender has not sent any weather packets the latest 10 day(s).
| Time | Temp. | Humidity | Pressure | Rain* | Wind** | Luminosity | Snow |
|---|---|---|---|---|---|---|---|
| 1777940205 | 17.78° C | 60% | 953 hPa | - | - | - | - |
| 1777939844 | 17.78° C | 60% | 953 hPa | - | - | - | - |
| 1777939483 | 17.78° C | 61% | 953 hPa | - | - | - | - |
| 1777939122 | 17.78° C | 61% | 953 hPa | - | - | - | - |
| 1777938761 | 17.78° C | 61% | 953 hPa | - | - | - | - |
| 1777938401 | 17.78° C | 61% | 953 hPa | - | - | - | - |
| 1777938040 | 17.78° C | 59% | 953 hPa | - | - | - | - |
| 1777937679 | 17.22° C | 61% | 953 hPa | - | - | - | - |
| 1777937318 | 17.78° C | 60% | 953 hPa | - | - | - | - |
| 1777936958 | 18.33° C | 59% | 953 hPa | - | - | - | - |
| 1777936597 | 18.33° C | 59% | 953 hPa | - | - | - | - |
| 1777936236 | 18.33° C | 59% | 953 hPa | - | - | - | - |
| 1777935875 | 18.33° C | 59% | 954 hPa | - | - | - | - |
| 1777935514 | 18.33° C | 58% | 954 hPa | - | - | - | - |
| 1777935154 | 18.89° C | 55% | 954 hPa | - | - | - | - |
| 1777934793 | 18.89° C | 55% | 954 hPa | - | - | - | - |
| 1777934432 | 19.44° C | 54% | 954 hPa | - | - | - | - |
| 1777934071 | 18.89° C | 56% | 954 hPa | - | - | - | - |
| 1777933710 | 18.89° C | 55% | 954 hPa | - | - | - | - |
| 1777933350 | 19.44° C | 53% | 954 hPa | - | - | - | - |
| 1777932989 | 19.44° C | 53% | 954 hPa | - | - | - | - |
| 1777932628 | 19.44° C | 53% | 954 hPa | - | - | - | - |
| 1777932267 | 19.44° C | 54% | 954 hPa | - | - | - | - |
| 1777931907 | 19.44° C | 53% | 954 hPa | - | - | - | - |
| 1777931546 | 19.44° C | 52% | 954 hPa | - | - | - | - |
* Rain since midnight (hover to see other rain measurements)
** Current wind speed in m/s (hover to see current wind gust speed)